createdAt,value
2022-08-25T00:00:29.575Z,25.48
2022-08-25T00:02:58.448Z,25.57
2022-08-25T00:05:32.248Z,25.42
2022-08-25T00:08:04.009Z,25.32
2022-08-25T00:10:35.511Z,25.31
2022-08-25T00:13:07.219Z,25.30
2022-08-25T00:15:43.000Z,25.50
2022-08-25T00:18:19.911Z,25.48
2022-08-25T00:20:50.290Z,25.47
2022-08-25T00:23:23.303Z,25.52
2022-08-25T00:25:52.906Z,25.30
2022-08-25T00:28:24.579Z,25.40
2022-08-25T00:30:55.973Z,25.26
2022-08-25T00:33:24.522Z,25.31
2022-08-25T00:35:54.679Z,25.33
2022-08-25T00:38:27.799Z,25.45
2022-08-25T00:41:11.144Z,25.47
2022-08-25T00:43:52.281Z,25.27
2022-08-25T00:46:25.714Z,25.25
2022-08-25T00:49:01.464Z,25.22
2022-08-25T00:51:39.259Z,25.25
2022-08-25T00:54:15.109Z,25.51
2022-08-25T00:56:47.313Z,25.32
2022-08-25T00:59:18.017Z,25.29
2022-08-25T01:01:46.814Z,25.28
2022-08-25T01:04:15.177Z,25.27
2022-08-25T01:06:46.120Z,25.36
2022-08-25T01:09:18.042Z,25.11
2022-08-25T01:11:48.197Z,25.24
2022-08-25T01:14:22.957Z,25.10
2022-08-25T01:16:54.280Z,24.88
2022-08-25T01:19:23.576Z,24.84
2022-08-25T01:21:55.338Z,24.74
2022-08-25T01:24:33.701Z,24.75
2022-08-25T01:27:03.615Z,24.66
2022-08-25T01:29:37.649Z,24.63
2022-08-25T01:32:14.240Z,24.56
2022-08-25T01:34:46.707Z,24.58
2022-08-25T01:37:19.293Z,24.54
2022-08-25T01:39:50.043Z,24.33
2022-08-25T01:42:51.363Z,24.34
2022-08-25T01:45:22.165Z,24.39
2022-08-25T01:47:50.796Z,24.37
2022-08-25T01:50:21.296Z,24.37
2022-08-25T01:52:59.839Z,24.34
2022-08-25T01:55:28.717Z,24.34
2022-08-25T01:57:59.498Z,24.31
2022-08-25T02:00:29.245Z,24.34
2022-08-25T02:02:59.268Z,24.37
2022-08-25T02:05:29.584Z,24.30
2022-08-25T02:08:03.027Z,24.19
2022-08-25T02:10:32.128Z,24.10
2022-08-25T02:13:02.125Z,24.07
2022-08-25T02:15:31.406Z,24.22
2022-08-25T02:18:04.806Z,24.06
2022-08-25T02:20:33.879Z,23.97
2022-08-25T02:23:04.925Z,24.00
2022-08-25T02:25:33.855Z,23.99
2022-08-25T02:28:03.403Z,23.98
2022-08-25T02:30:32.640Z,24.08
2022-08-25T02:33:06.759Z,23.99
2022-08-25T02:35:35.557Z,24.00
2022-08-25T02:38:06.822Z,23.84
2022-08-25T02:40:36.471Z,23.89
2022-08-25T02:43:06.180Z,23.86
2022-08-25T02:45:34.688Z,23.70
2022-08-25T02:48:05.484Z,23.82
2022-08-25T02:50:34.763Z,23.83
2022-08-25T02:53:08.307Z,23.81
2022-08-25T02:55:39.347Z,23.77
2022-08-25T02:58:10.442Z,23.77
2022-08-25T03:00:42.151Z,23.76
2022-08-25T03:03:12.576Z,23.74
2022-08-25T03:05:41.432Z,23.70
2022-08-25T03:08:11.739Z,23.67
2022-08-25T03:10:41.795Z,23.62
2022-08-25T03:13:10.280Z,23.77
2022-08-25T03:15:42.325Z,23.63
2022-08-25T03:18:12.203Z,23.61
2022-08-25T03:20:43.405Z,23.55
2022-08-25T03:23:12.679Z,23.59
2022-08-25T03:26:03.835Z,23.69
2022-08-25T03:28:40.085Z,23.57
2022-08-25T03:31:09.836Z,23.56
2022-08-25T03:33:40.209Z,23.66
2022-08-25T03:36:12.625Z,23.57
2022-08-25T03:38:44.846Z,23.57
2022-08-25T03:41:18.294Z,23.63
2022-08-25T03:43:48.339Z,23.54
2022-08-25T03:46:23.169Z,23.55
2022-08-25T03:48:53.520Z,23.50
2022-08-25T03:51:26.853Z,23.57
2022-08-25T03:53:59.939Z,23.41
2022-08-25T03:56:31.120Z,23.58
2022-08-25T03:59:00.330Z,23.55
2022-08-25T04:01:33.154Z,23.59
2022-08-25T04:04:04.091Z,23.40
2022-08-25T04:06:33.817Z,23.26
2022-08-25T04:09:04.585Z,23.46
2022-08-25T04:11:35.228Z,23.37
2022-08-25T04:14:04.915Z,23.23
2022-08-25T04:16:37.882Z,23.39
2022-08-25T04:19:13.058Z,23.37
2022-08-25T04:22:01.400Z,23.34
2022-08-25T04:24:39.308Z,23.17
2022-08-25T04:29:59.593Z,23.33
2022-08-25T04:32:28.529Z,23.28
2022-08-25T04:34:57.307Z,23.38
2022-08-25T04:37:26.165Z,23.40
2022-08-25T04:39:58.217Z,23.22
2022-08-25T04:42:34.642Z,23.36
2022-08-25T04:45:04.469Z,23.29
2022-08-25T04:47:32.917Z,23.41
2022-08-25T04:50:03.016Z,23.44
2022-08-25T04:52:32.100Z,23.37
2022-08-25T04:55:01.120Z,23.43
2022-08-25T04:57:31.924Z,23.13
2022-08-25T05:00:02.555Z,23.42
2022-08-25T05:02:31.237Z,23.25
2022-08-25T05:05:02.276Z,23.09
2022-08-25T05:07:31.705Z,23.33
2022-08-25T05:10:00.413Z,23.42
2022-08-25T05:12:31.606Z,23.32
2022-08-25T05:15:22.317Z,23.47
2022-08-25T05:17:55.830Z,23.46
2022-08-25T05:20:27.047Z,23.49
2022-08-25T05:22:56.889Z,23.51
2022-08-25T05:25:27.717Z,23.49
2022-08-25T05:27:57.831Z,23.63
2022-08-25T05:30:28.141Z,23.63
2022-08-25T05:32:57.743Z,23.63
2022-08-25T05:35:26.556Z,23.54
2022-08-25T05:37:57.475Z,23.65
2022-08-25T05:40:26.247Z,23.84
2022-08-25T05:42:56.343Z,23.89
2022-08-25T05:45:27.660Z,24.11
2022-08-25T05:47:58.018Z,24.26
2022-08-25T05:50:27.692Z,24.33
2022-08-25T05:52:56.540Z,24.46
2022-08-25T05:55:28.014Z,24.73
2022-08-25T05:58:01.998Z,24.41
2022-08-25T06:00:31.819Z,24.42
2022-08-25T06:03:02.089Z,24.54
2022-08-25T06:05:30.755Z,24.86
2022-08-25T06:08:00.163Z,25.01
2022-08-25T06:10:30.977Z,25.07
2022-08-25T06:13:02.737Z,24.73
2022-08-25T06:15:35.388Z,25.15
2022-08-25T06:18:07.408Z,24.75
2022-08-25T06:20:41.232Z,25.10
2022-08-25T06:23:10.923Z,25.19
2022-08-25T06:25:41.257Z,25.26
2022-08-25T06:28:12.447Z,25.47
2022-08-25T06:30:45.050Z,25.41
2022-08-25T06:33:14.751Z,24.94
2022-08-25T06:35:45.151Z,25.35
2022-08-25T06:38:14.858Z,25.22
2022-08-25T06:40:48.997Z,25.32
2022-08-25T06:43:19.700Z,24.97
2022-08-25T06:45:48.597Z,24.99
2022-08-25T06:48:18.439Z,25.39
2022-08-25T06:50:51.523Z,25.05
2022-08-25T06:53:23.146Z,25.14
2022-08-25T06:56:02.239Z,25.43
2022-08-25T06:58:35.436Z,25.74
2022-08-25T07:01:20.313Z,25.51
2022-08-25T07:03:52.641Z,26.10
2022-08-25T07:06:25.371Z,25.93
2022-08-25T07:08:55.671Z,25.92
2022-08-25T07:11:26.692Z,25.88
2022-08-25T07:14:00.194Z,25.90
2022-08-25T07:16:30.221Z,26.27
2022-08-25T07:19:00.185Z,26.33
2022-08-25T07:21:33.709Z,26.37
2022-08-25T07:24:08.403Z,26.61
2022-08-25T07:26:39.110Z,26.95
2022-08-25T07:29:14.475Z,27.20
2022-08-25T07:31:44.002Z,27.37
2022-08-25T07:34:30.912Z,27.41
2022-08-25T07:37:00.122Z,27.51
2022-08-25T07:39:29.063Z,27.45
2022-08-25T07:41:58.877Z,27.54
2022-08-25T07:44:31.146Z,27.82
2022-08-25T07:47:00.363Z,28.08
2022-08-25T07:49:36.094Z,27.77
2022-08-25T07:52:10.283Z,28.01
2022-08-25T07:54:47.792Z,28.23
2022-08-25T07:57:18.590Z,28.49
2022-08-25T07:59:48.797Z,28.38
2022-08-25T08:02:24.740Z,28.17
2022-08-25T08:08:05.047Z,28.96
2022-08-25T08:11:04.030Z,29.10
2022-08-25T08:13:26.999Z,28.68
2022-08-25T08:16:03.293Z,28.87
2022-08-25T08:21:23.531Z,29.42
2022-08-25T08:24:01.227Z,29.53
2022-08-25T08:26:55.166Z,29.50
2022-08-25T08:29:22.536Z,30.19
2022-08-25T08:31:55.841Z,30.01
2022-08-25T08:34:25.266Z,30.10
2022-08-25T08:42:55.081Z,30.25
2022-08-25T08:45:44.233Z,30.76
2022-08-25T08:48:41.495Z,31.07
2022-08-25T08:51:23.478Z,30.89
2022-08-25T08:57:21.501Z,31.42
2022-08-25T09:00:08.915Z,30.60
2022-08-25T09:02:51.528Z,31.36
2022-08-25T09:05:28.733Z,31.58
2022-08-25T09:08:05.996Z,31.93
2022-08-25T09:10:48.153Z,31.95
2022-08-25T09:13:29.224Z,32.07
2022-08-25T09:16:33.722Z,32.21
2022-08-25T09:19:32.077Z,31.88
2022-08-25T09:22:48.289Z,32.39
2022-08-25T09:28:28.584Z,32.60
2022-08-25T09:31:02.484Z,32.23
2022-08-25T09:33:39.349Z,32.81
2022-08-25T09:36:12.728Z,33.01
2022-08-25T09:54:50.208Z,33.34
2022-08-25T09:57:38.143Z,33.80
2022-08-25T10:00:19.807Z,33.34
2022-08-25T10:03:11.499Z,33.26
2022-08-25T10:06:03.005Z,33.89
2022-08-25T10:08:39.609Z,33.40
2022-08-25T10:11:17.251Z,33.61
2022-08-25T10:14:02.966Z,33.99
2022-08-25T10:16:35.700Z,34.09
2022-08-25T10:19:11.120Z,34.33
2022-08-25T10:21:44.414Z,34.71
2022-08-25T10:24:16.239Z,33.83
2022-08-25T10:26:59.856Z,34.63
2022-08-25T10:30:05.512Z,35.00
2022-08-25T10:33:06.157Z,34.81
2022-08-25T10:35:58.823Z,34.78
2022-08-25T10:38:46.833Z,34.86
2022-08-25T10:41:43.352Z,35.06
2022-08-25T10:44:36.827Z,35.38
2022-08-25T10:47:48.605Z,35.05
2022-08-25T10:50:34.091Z,34.92
2022-08-25T10:53:24.264Z,35.19
2022-08-25T10:56:07.258Z,34.70
2022-08-25T10:59:11.861Z,35.26
2022-08-25T11:02:01.520Z,35.25
2022-08-25T11:04:38.983Z,35.62
2022-08-25T11:07:20.791Z,35.38
2022-08-25T11:09:55.220Z,36.07
2022-08-25T11:12:34.961Z,36.24
2022-08-25T11:15:11.342Z,36.36
2022-08-25T11:17:50.484Z,36.40
2022-08-25T11:20:27.330Z,36.79
2022-08-25T11:23:13.206Z,36.52
2022-08-25T11:25:52.025Z,35.92
2022-08-25T11:28:40.484Z,36.02
2022-08-25T11:31:11.846Z,36.38
2022-08-25T11:33:46.610Z,36.50
2022-08-25T11:36:29.627Z,36.70
2022-08-25T11:39:17.406Z,36.46
2022-08-25T11:42:06.892Z,37.08
2022-08-25T11:44:53.590Z,37.05
2022-08-25T11:48:05.192Z,37.37
2022-08-25T11:50:56.377Z,36.95
2022-08-25T11:53:30.304Z,37.53
2022-08-25T11:56:04.530Z,37.93
2022-08-25T11:58:53.232Z,37.53
2022-08-25T12:02:06.609Z,37.59
2022-08-25T12:04:44.721Z,37.83
2022-08-25T12:07:22.014Z,37.41
2022-08-25T12:10:20.785Z,36.90
2022-08-25T12:13:23.254Z,36.62
2022-08-25T12:16:02.504Z,37.47
2022-08-25T12:18:50.488Z,37.06
2022-08-25T12:21:34.358Z,37.05
2022-08-25T12:24:14.967Z,37.19
2022-08-25T12:26:55.852Z,37.54
2022-08-25T12:29:40.779Z,37.78
2022-08-25T12:32:52.422Z,37.53
2022-08-25T12:35:52.578Z,37.47
2022-08-25T12:38:34.728Z,38.05
2022-08-25T12:41:12.535Z,37.80
2022-08-25T12:43:45.350Z,37.64
2022-08-25T12:46:40.146Z,37.86
2022-08-25T12:49:31.604Z,38.37
2022-08-25T12:52:08.593Z,38.53
2022-08-25T12:54:50.412Z,37.97
2022-08-25T12:57:44.445Z,38.13
2022-08-25T13:00:21.476Z,38.71
2022-08-25T13:03:35.641Z,39.05
2022-08-25T13:06:31.535Z,38.98
2022-08-25T13:10:03.750Z,38.93
2022-08-25T13:12:39.327Z,39.34
2022-08-25T13:15:13.408Z,38.76
2022-08-25T13:17:46.411Z,39.21
2022-08-25T13:20:24.624Z,39.76
2022-08-25T13:23:04.083Z,39.87
2022-08-25T13:25:37.086Z,40.01
2022-08-25T13:28:11.106Z,40.17
2022-08-25T13:30:40.244Z,40.39
2022-08-25T13:33:22.084Z,40.44
2022-08-25T13:36:19.695Z,40.30
2022-08-25T13:38:49.406Z,40.92
2022-08-25T13:41:34.053Z,40.53
2022-08-25T13:44:05.242Z,40.28
2022-08-25T13:46:35.519Z,40.45
2022-08-25T13:49:08.650Z,40.15
2022-08-25T13:51:57.852Z,40.51
2022-08-25T13:54:41.883Z,40.48
2022-08-25T13:57:21.379Z,40.29
2022-08-25T14:00:04.044Z,40.70
2022-08-25T14:02:50.999Z,41.05
2022-08-25T14:05:40.459Z,41.24
2022-08-25T14:11:32.930Z,41.39
2022-08-25T14:17:40.558Z,41.46
2022-08-25T14:20:29.794Z,40.57
2022-08-25T14:26:31.886Z,41.70
2022-08-25T14:29:02.689Z,42.29
2022-08-25T14:40:44.664Z,43.38
2022-08-25T14:46:19.539Z,43.96
2022-08-25T14:49:10.959Z,43.92
2022-08-25T14:57:44.108Z,44.49
2022-08-25T15:00:30.719Z,44.47
2022-08-25T15:06:30.812Z,44.78
2022-08-25T15:11:58.831Z,45.11
2022-08-25T15:14:29.009Z,45.22
2022-08-25T15:22:51.841Z,45.35
2022-08-25T15:28:17.339Z,45.03
2022-08-25T15:33:31.764Z,44.99
2022-08-25T15:36:00.901Z,45.39
2022-08-25T15:39:02.876Z,45.27
2022-08-25T15:41:38.607Z,45.44
2022-08-25T15:44:19.800Z,45.39
2022-08-25T15:46:52.007Z,44.59
2022-08-25T15:49:38.560Z,43.98
2022-08-25T16:17:36.201Z,42.31
2022-08-25T16:20:32.075Z,42.60
2022-08-25T16:26:24.203Z,42.45
2022-08-25T16:42:19.050Z,39.87
2022-08-25T16:44:48.635Z,39.57
2022-08-25T16:47:27.090Z,38.50
2022-08-25T16:49:56.602Z,38.19
2022-08-25T16:52:44.951Z,37.35
2022-08-25T16:55:16.049Z,37.13
2022-08-25T16:57:59.678Z,35.81
2022-08-25T17:00:33.138Z,34.89
2022-08-25T17:03:11.196Z,35.05
2022-08-25T17:05:45.461Z,34.60
2022-08-25T17:08:35.940Z,34.17
2022-08-25T17:11:12.779Z,34.23
2022-08-25T17:13:47.905Z,33.37
2022-08-25T17:16:21.084Z,33.14
2022-08-25T17:18:56.528Z,33.09
2022-08-25T17:21:27.184Z,32.69
2022-08-25T17:23:59.540Z,32.91
2022-08-25T17:26:30.021Z,32.73
2022-08-25T17:29:15.860Z,32.32
2022-08-25T17:31:48.625Z,32.34
2022-08-25T17:34:21.384Z,31.87
2022-08-25T17:36:56.117Z,31.47
2022-08-25T17:39:28.247Z,31.95
2022-08-25T17:41:59.253Z,31.75
2022-08-25T17:44:47.965Z,31.26
2022-08-25T17:47:17.427Z,31.22
2022-08-25T17:49:46.461Z,30.80
2022-08-25T17:52:20.569Z,31.04
2022-08-25T18:01:45.522Z,30.76
2022-08-25T18:09:55.287Z,30.21
2022-08-25T18:12:27.444Z,30.06
2022-08-25T18:15:05.698Z,29.63
2022-08-25T18:17:42.315Z,29.57
2022-08-25T18:20:22.327Z,29.43
2022-08-25T18:22:52.953Z,29.43
2022-08-25T18:25:43.450Z,29.18
2022-08-25T18:34:03.509Z,28.79
2022-08-25T18:36:38.548Z,28.73
2022-08-25T18:39:34.858Z,28.41
2022-08-25T18:42:21.537Z,28.62
2022-08-25T18:47:37.242Z,28.35
2022-08-25T18:50:51.920Z,28.27
2022-08-25T18:56:06.700Z,28.05
2022-08-25T19:01:33.705Z,27.49
2022-08-25T19:07:01.049Z,27.23
2022-08-25T19:09:33.060Z,27.42
2022-08-25T19:12:05.864Z,27.33
2022-08-25T19:14:35.027Z,27.03
2022-08-25T19:19:51.630Z,27.03
2022-08-25T19:22:38.535Z,27.17
2022-08-25T19:25:14.128Z,27.19
2022-08-25T19:27:45.083Z,26.84
2022-08-25T19:30:19.670Z,26.56
2022-08-25T19:32:50.053Z,26.67
2022-08-25T19:35:39.357Z,26.80
2022-08-25T19:38:34.004Z,26.64
2022-08-25T19:41:15.002Z,26.67
2022-08-25T19:43:55.692Z,26.47
2022-08-25T19:46:32.858Z,26.58
2022-08-25T19:49:07.147Z,26.65
2022-08-25T19:51:55.054Z,26.47
2022-08-25T19:54:29.623Z,26.38
2022-08-25T19:57:01.209Z,26.51
2022-08-25T19:59:42.367Z,26.20
2022-08-25T20:08:00.030Z,26.08
2022-08-25T20:13:30.725Z,26.21
2022-08-25T20:16:00.685Z,26.04
2022-08-25T20:18:30.556Z,25.70
2022-08-25T20:20:59.061Z,25.64
2022-08-25T20:29:30.030Z,25.53
2022-08-25T20:31:59.923Z,25.31
2022-08-25T20:34:30.063Z,25.42
2022-08-25T20:37:03.553Z,25.29
2022-08-25T20:39:36.988Z,25.46
2022-08-25T20:42:07.803Z,25.52
2022-08-25T20:44:42.227Z,25.10
2022-08-25T20:47:26.387Z,25.33
2022-08-25T20:49:56.261Z,25.13
2022-08-25T20:55:11.344Z,25.35
2022-08-25T20:57:40.474Z,25.19
2022-08-25T21:00:27.311Z,25.08
2022-08-25T21:02:56.839Z,24.76
2022-08-25T21:05:25.743Z,25.22
2022-08-25T21:07:56.899Z,25.24
2022-08-25T21:10:27.584Z,25.20
2022-08-25T21:12:57.840Z,24.89
2022-08-25T21:15:28.642Z,24.96
2022-08-25T21:17:58.441Z,25.12
2022-08-25T21:20:28.291Z,25.11
2022-08-25T21:22:56.768Z,25.13
2022-08-25T21:25:25.473Z,24.79
2022-08-25T21:27:54.514Z,25.04
2022-08-25T21:30:23.281Z,25.09
2022-08-25T21:32:54.104Z,24.83
2022-08-25T21:35:26.773Z,24.54
2022-08-25T21:37:55.584Z,24.43
2022-08-25T21:40:28.166Z,24.68
2022-08-25T21:42:56.906Z,25.07
2022-08-25T21:45:25.620Z,24.78
2022-08-25T21:47:55.762Z,24.69
2022-08-25T21:50:29.247Z,24.78
2022-08-25T21:52:57.903Z,24.88
2022-08-25T21:55:28.587Z,24.50
2022-08-25T21:57:58.120Z,24.73
2022-08-25T22:00:28.436Z,24.90
2022-08-25T22:03:00.055Z,24.67
2022-08-25T22:05:29.622Z,24.73
2022-08-25T22:07:58.104Z,24.84
2022-08-25T22:10:28.010Z,24.87
2022-08-25T22:12:59.140Z,24.83
2022-08-25T22:15:30.207Z,24.91
2022-08-25T22:18:02.218Z,24.71
2022-08-25T22:20:31.238Z,24.62
2022-08-25T22:23:00.741Z,24.46
2022-08-25T22:25:31.626Z,24.56
2022-08-25T22:28:02.485Z,24.88
2022-08-25T22:30:32.780Z,24.50
2022-08-25T22:33:03.120Z,24.52
2022-08-25T22:35:35.894Z,24.41
2022-08-25T22:38:12.585Z,24.61
2022-08-25T22:40:41.876Z,24.66
2022-08-25T22:43:11.216Z,24.07
2022-08-25T22:45:40.949Z,24.56
2022-08-25T22:48:10.697Z,24.51
2022-08-25T22:50:40.381Z,24.45
2022-08-25T22:53:09.100Z,24.52
2022-08-25T22:55:44.697Z,24.76
2022-08-25T22:58:15.173Z,24.45
2022-08-25T23:00:43.670Z,24.63
2022-08-25T23:03:14.616Z,24.55
2022-08-25T23:05:43.432Z,24.28
2022-08-25T23:08:12.371Z,24.17
2022-08-25T23:10:52.651Z,24.66
2022-08-25T23:13:34.230Z,24.02
2022-08-25T23:16:11.886Z,24.39
2022-08-25T23:18:44.898Z,24.29
2022-08-25T23:21:35.346Z,24.57
2022-08-25T23:24:11.585Z,24.56
2022-08-25T23:26:42.010Z,24.46
2022-08-25T23:29:18.655Z,24.45
2022-08-25T23:31:51.861Z,24.46
2022-08-25T23:34:27.379Z,24.45
2022-08-25T23:36:59.703Z,24.45
2022-08-25T23:39:32.048Z,24.64
2022-08-25T23:42:01.872Z,24.78
2022-08-25T23:44:33.928Z,24.32
2022-08-25T23:47:09.277Z,24.55
2022-08-25T23:49:43.335Z,23.99
2022-08-25T23:52:17.106Z,24.69
2022-08-25T23:54:48.975Z,24.39
2022-08-25T23:57:18.882Z,24.50
2022-08-25T23:59:48.987Z,24.25
